Oslo Bulk 1 — 9V8766 — position and weather

sailwx.info

Track history (hours):
 
Tides and Currents Weather Stations Pressure Air Temp Water Temp Dewpoint Dewpoint Depression Visibility Wind Speed Wind Dir Waves Ship Positions

Oslo Bulk 1

Last reported at 2016-Apr-29 15:33 UTC. Time now 2016-Apr-29 15:57 UTC.
Position S 33°29' E 151°49'.

Length 108 m; draft 4.6 m.

Type: Ship. MMSI: 564010000.

Date/timePositionNaut miles runAvg speedWind from/ knotsBaromVisibWave heightAir tempDewpointWater temp
2016-Apr-29 15:33S 33°29' E 151°49'9 9.5
2016-Apr-29 14:33S 33°37' E 151°43'9 9.3
2016-Apr-29 13:33S 33°45' E 151°38'10 9.5
2016-Apr-29 12:34S 33°53' E 151°31'33 6.4
2016-Apr-29 07:19S 34°16' E 151°02'0 0.0
2016-Apr-29 06:22S 34°16' E 151°02'  
2016-Apr-26 12:16S 34°16' E 151°02'  
2016-Apr-20 13:05S 37°18' E 150°15'5 9.0
2016-Apr-20 12:33S 37°23' E 150°13'20 8.8
2016-Apr-20 10:18S 37°41' E 150°05'7 9.5
2016-Apr-20 09:32S 37°46' E 149°59'10 9.8
2016-Apr-20 08:33S 37°52' E 149°49'9 9.1
2016-Apr-20 07:33S 37°58' E 149°40'10 9.8
2016-Apr-20 06:33S 38°04' E 149°30'1110.5
2016-Apr-20 05:32S 38°10' E 149°19'1110.7
2016-Apr-20 04:33S 38°17' E 149°09'1110.9
2016-Apr-20 03:33S 38°23' E 148°58'1110.9
2016-Apr-20 02:33S 38°30' E 148°47'1110.6
2016-Apr-20 01:33S 38°36' E 148°36'1110.5
2016-Apr-20 00:33S 38°42' E 148°25'1010.4
2016-Apr-19 23:33S 38°48' E 148°13'1210.2
2016-Apr-19 22:25S 38°52' E 147°60'910.0
2016-Apr-19 21:33S 38°55' E 147°49'10 9.7
2016-Apr-19 20:33S 38°58' E 147°37'10 9.9
2016-Apr-19 19:33S 39°01' E 147°25'1010.2
2016-Apr-19 18:33S 39°05' E 147°13'1110.6
2016-Apr-19 17:33S 39°08' E 147°00'1111.0
2016-Apr-19 16:33S 39°12' E 146°47'  
Track history (hours):
 
Tides and Currents Weather Stations Pressure Air Temp Water Temp Dewpoint Dewpoint Depression Visibility Wind Speed Wind Dir Waves Ship Positions

Oslo Bulk 1

Last reported at 2016-Apr-29 15:33 UTC. Time now 2016-Apr-29 15:57 UTC.
Position S 33°29' E 151°49'.

Length 108 m; draft 4.6 m.

Type: Ship. MMSI: 564010000.

Date/timePositionNaut miles runAvg speedWind from/ knotsBaromVisibWave heightAir tempDewpointWater temp
2016-Apr-29 15:33S 33°29' E 151°49'9 9.5
2016-Apr-29 14:33S 33°37' E 151°43'9 9.3
2016-Apr-29 13:33S 33°45' E 151°38'10 9.5
2016-Apr-29 12:34S 33°53' E 151°31'33 6.4
2016-Apr-29 07:19S 34°16' E 151°02'0 0.0
2016-Apr-29 06:22S 34°16' E 151°02'  
2016-Apr-26 12:16S 34°16' E 151°02'  
2016-Apr-20 13:05S 37°18' E 150°15'5 9.0
2016-Apr-20 12:33S 37°23' E 150°13'20 8.8
2016-Apr-20 10:18S 37°41' E 150°05'7 9.5
2016-Apr-20 09:32S 37°46' E 149°59'10 9.8
2016-Apr-20 08:33S 37°52' E 149°49'9 9.1
2016-Apr-20 07:33S 37°58' E 149°40'10 9.8
2016-Apr-20 06:33S 38°04' E 149°30'1110.5
2016-Apr-20 05:32S 38°10' E 149°19'1110.7
2016-Apr-20 04:33S 38°17' E 149°09'1110.9
2016-Apr-20 03:33S 38°23' E 148°58'1110.9
2016-Apr-20 02:33S 38°30' E 148°47'1110.6
2016-Apr-20 01:33S 38°36' E 148°36'1110.5
2016-Apr-20 00:33S 38°42' E 148°25'1010.4
2016-Apr-19 23:33S 38°48' E 148°13'1210.2
2016-Apr-19 22:25S 38°52' E 147°60'910.0
2016-Apr-19 21:33S 38°55' E 147°49'10 9.7
2016-Apr-19 20:33S 38°58' E 147°37'10 9.9
2016-Apr-19 19:33S 39°01' E 147°25'1010.2
2016-Apr-19 18:33S 39°05' E 147°13'1110.6
2016-Apr-19 17:33S 39°08' E 147°00'1111.0
2016-Apr-19 16:33S 39°12' E 146°47'  

Dump ship's entire track history